createdAt,value
2023-04-09T00:01:04.785Z,14.80
2023-04-09T00:03:40.515Z,13.93
2023-04-09T00:06:15.229Z,13.63
2023-04-09T00:08:49.916Z,13.43
2023-04-09T00:11:23.849Z,13.87
2023-04-09T00:13:59.364Z,13.07
2023-04-09T00:16:33.057Z,12.03
2023-04-09T00:19:06.874Z,14.10
2023-04-09T00:21:40.516Z,13.57
2023-04-09T00:24:14.596Z,13.57
2023-04-09T00:26:49.326Z,13.20
2023-04-09T00:29:24.492Z,13.00
2023-04-09T00:31:58.225Z,13.97
2023-04-09T00:34:32.370Z,13.17
2023-04-09T00:37:06.263Z,12.00
2023-04-09T00:39:39.961Z,12.00
2023-04-09T00:42:13.954Z,11.80
2023-04-09T00:44:49.339Z,13.73
2023-04-09T00:47:23.295Z,11.80
2023-04-09T00:49:59.618Z,11.57
2023-04-09T00:52:34.302Z,10.93
2023-04-09T00:55:10.973Z,11.53
2023-04-09T00:57:44.551Z,11.40
2023-04-09T01:00:20.697Z,11.73
2023-04-09T01:02:54.338Z,11.17
2023-04-09T01:05:38.421Z,11.67
2023-04-09T01:08:27.164Z,12.30
2023-04-09T01:11:11.490Z,12.43
2023-04-09T01:13:56.777Z,12.53
2023-04-09T01:16:37.334Z,12.53
2023-04-09T01:19:38.509Z,12.17
2023-04-09T01:22:31.319Z,10.73
2023-04-09T01:25:26.822Z,12.13
2023-04-09T01:28:33.616Z,11.60
2023-04-09T01:31:14.362Z,12.03
2023-04-09T01:33:49.153Z,11.63
2023-04-09T01:36:24.411Z,11.60
2023-04-09T01:38:58.983Z,12.03
2023-04-09T01:41:35.866Z,11.20
2023-04-09T01:44:14.379Z,12.10
2023-04-09T01:46:49.833Z,12.20
2023-04-09T01:49:25.125Z,11.47
2023-04-09T01:51:59.644Z,12.20
2023-04-09T01:54:33.798Z,12.23
2023-04-09T01:57:07.431Z,12.27
2023-04-09T01:59:42.707Z,12.17
2023-04-09T02:02:29.855Z,11.63
2023-04-09T02:05:11.161Z,12.33
2023-04-09T02:07:53.690Z,12.37
2023-04-09T02:10:33.239Z,12.07
2023-04-09T02:13:11.347Z,11.63
2023-04-09T02:15:49.351Z,11.63
2023-04-09T02:18:28.979Z,11.87
2023-04-09T02:21:02.634Z,11.33
2023-04-09T02:23:36.295Z,11.60
2023-04-09T02:26:10.212Z,11.03
2023-04-09T02:28:43.958Z,11.13
2023-04-09T02:31:19.267Z,13.73
2023-04-09T02:33:54.472Z,10.80
2023-04-09T02:36:28.251Z,10.83
2023-04-09T02:39:02.135Z,12.50
2023-04-09T02:41:36.978Z,11.17
2023-04-09T02:44:10.654Z,10.77
2023-04-09T02:46:49.706Z,12.37
2023-04-09T02:49:23.442Z,11.97
2023-04-09T02:51:57.336Z,12.27
2023-04-09T02:54:31.168Z,10.83
2023-04-09T02:57:06.954Z,11.87
2023-04-09T02:59:41.135Z,11.27
2023-04-09T03:02:16.418Z,11.07
2023-04-09T03:04:50.777Z,11.57
2023-04-09T03:07:24.973Z,11.50
2023-04-09T03:09:59.242Z,11.33
2023-04-09T03:12:36.265Z,10.87
2023-04-09T03:15:11.114Z,11.20
2023-04-09T03:17:46.196Z,10.70
2023-04-09T03:20:20.171Z,10.60
2023-04-09T03:22:54.324Z,9.47
2023-04-09T03:25:28.333Z,11.13
2023-04-09T03:28:02.194Z,11.20
2023-04-09T03:30:35.497Z,10.57
2023-04-09T03:33:10.715Z,12.23
2023-04-09T03:35:44.649Z,10.67
2023-04-09T03:38:18.386Z,11.47
2023-04-09T03:40:51.977Z,11.10
2023-04-09T03:43:25.643Z,11.97
2023-04-09T03:45:59.051Z,12.13
2023-04-09T03:48:34.116Z,12.00
2023-04-09T03:51:07.914Z,11.53
2023-04-09T03:53:41.989Z,12.67
2023-04-09T03:56:15.679Z,12.40
2023-04-09T03:58:50.208Z,12.20
2023-04-09T04:01:25.719Z,12.87
2023-04-09T04:04:01.942Z,12.67
2023-04-09T04:06:36.267Z,11.50
2023-04-09T04:09:09.954Z,11.33
2023-04-09T04:11:43.823Z,12.07
2023-04-09T04:14:18.623Z,11.97
2023-04-09T04:16:52.482Z,11.97
2023-04-09T04:19:27.953Z,12.47
2023-04-09T04:22:01.731Z,12.77
2023-04-09T04:24:35.376Z,12.80
2023-04-09T04:27:09.119Z,11.57
2023-04-09T04:29:42.712Z,11.60
2023-04-09T04:32:16.839Z,12.20
2023-04-09T04:34:52.384Z,12.50
2023-04-09T04:37:26.244Z,12.60
2023-04-09T04:40:00.228Z,12.17
2023-04-09T04:42:34.199Z,12.50
2023-04-09T04:45:10.053Z,12.40
2023-04-09T04:47:43.765Z,12.07
2023-04-09T04:50:19.876Z,12.10
2023-04-09T04:52:53.824Z,12.67
2023-04-09T04:55:27.327Z,12.33
2023-04-09T04:58:00.566Z,11.17
2023-04-09T05:00:34.595Z,11.37
2023-04-09T05:03:08.712Z,11.03
2023-04-09T05:05:44.107Z,11.63
2023-04-09T05:08:18.256Z,11.47
2023-04-09T05:10:52.041Z,11.77
2023-04-09T05:13:26.242Z,11.23
2023-04-09T05:16:01.222Z,10.63
2023-04-09T05:18:34.782Z,10.33
2023-04-09T05:21:09.823Z,10.43
2023-04-09T05:23:43.438Z,10.17
2023-04-09T05:26:19.242Z,10.07
2023-04-09T05:28:53.440Z,9.97
2023-04-09T05:31:27.534Z,10.10
2023-04-09T05:34:01.131Z,10.43
2023-04-09T05:36:36.455Z,10.90
2023-04-09T05:39:11.248Z,10.63
2023-04-09T05:41:45.235Z,10.43
2023-04-09T05:44:21.389Z,10.43
2023-04-09T05:46:55.057Z,10.83
2023-04-09T05:49:29.213Z,11.83
2023-04-09T05:52:04.248Z,10.93
2023-04-09T05:54:38.183Z,12.33
2023-04-09T05:57:11.934Z,12.67
2023-04-09T05:59:45.912Z,13.07
2023-04-09T06:02:20.341Z,12.67
2023-04-09T06:04:54.747Z,14.43
2023-04-09T06:07:30.540Z,12.60
2023-04-09T06:10:04.671Z,13.30
2023-04-09T06:12:38.530Z,12.80
2023-04-09T06:15:12.853Z,13.70
2023-04-09T06:17:46.527Z,12.87
2023-04-09T06:20:20.459Z,11.67
2023-04-09T06:22:57.800Z,12.23
2023-04-09T06:25:31.727Z,12.20
2023-04-09T06:28:05.837Z,11.83
2023-04-09T06:30:39.878Z,11.70
2023-04-09T06:33:13.677Z,10.97
2023-04-09T06:35:49.021Z,10.80
2023-04-09T06:38:24.359Z,10.67
2023-04-09T06:40:58.299Z,11.17
2023-04-09T06:43:32.681Z,10.33
2023-04-09T06:46:06.560Z,10.23
2023-04-09T06:48:43.653Z,10.60
2023-04-09T06:51:17.518Z,10.97
2023-04-09T06:53:54.411Z,10.07
2023-04-09T06:56:28.404Z,10.47
2023-04-09T06:59:05.234Z,9.90
2023-04-09T07:01:39.368Z,10.47
2023-04-09T07:04:13.648Z,9.87
2023-04-09T07:06:48.168Z,10.00
2023-04-09T07:09:23.494Z,9.93
2023-04-09T07:11:57.892Z,9.60
2023-04-09T07:14:32.006Z,9.43
2023-04-09T07:17:05.915Z,9.50
2023-04-09T07:19:40.000Z,10.50
2023-04-09T07:22:14.228Z,9.23
2023-04-09T07:24:54.454Z,9.20
2023-04-09T07:27:30.234Z,8.83
2023-04-09T07:30:04.922Z,9.90
2023-04-09T07:32:39.278Z,9.67
2023-04-09T07:35:12.852Z,8.87
2023-04-09T07:37:46.596Z,8.97
2023-04-09T07:40:22.886Z,9.37
2023-04-09T07:42:58.463Z,8.83
2023-04-09T07:45:32.130Z,8.63
2023-04-09T07:48:06.069Z,8.10
2023-04-09T07:50:40.063Z,8.67
2023-04-09T07:53:13.525Z,8.53
2023-04-09T07:55:48.656Z,9.07
2023-04-09T07:58:22.833Z,8.57
2023-04-09T08:00:56.730Z,7.97
2023-04-09T08:03:30.896Z,7.17
2023-04-09T08:06:04.970Z,7.90
2023-04-09T08:08:38.649Z,8.33
2023-04-09T08:11:14.440Z,6.53
2023-04-09T08:13:48.203Z,7.67
2023-04-09T08:16:24.035Z,7.30
2023-04-09T08:18:57.807Z,7.97
2023-04-09T08:21:32.576Z,7.63
2023-04-09T08:24:07.525Z,6.83
2023-04-09T08:26:43.985Z,6.17
2023-04-09T08:29:17.554Z,6.73
2023-04-09T08:31:51.524Z,6.37
2023-04-09T08:34:25.348Z,6.77
2023-04-09T08:36:59.093Z,6.33
2023-04-09T08:39:32.468Z,5.90
2023-04-09T08:42:21.887Z,6.50
2023-04-09T08:44:57.850Z,6.70
2023-04-09T08:47:33.831Z,6.83
2023-04-09T08:50:08.849Z,6.77
2023-04-09T08:52:44.191Z,6.10
2023-04-09T08:55:19.833Z,6.87
2023-04-09T08:57:55.408Z,7.07
2023-04-09T09:00:29.220Z,7.03
2023-04-09T09:03:08.817Z,6.73
2023-04-09T09:05:44.685Z,7.10
2023-04-09T09:08:25.933Z,6.07
2023-04-09T09:11:00.162Z,5.63
2023-04-09T09:13:35.759Z,5.63
2023-04-09T09:16:16.889Z,5.03
2023-04-09T09:18:51.205Z,5.20
2023-04-09T09:21:27.766Z,5.60
2023-04-09T09:24:01.592Z,5.40
2023-04-09T09:26:41.312Z,4.87
2023-04-09T09:29:16.343Z,5.17
2023-04-09T09:31:53.263Z,4.90
2023-04-09T09:34:27.384Z,5.30
2023-04-09T09:37:01.128Z,4.57
2023-04-09T09:39:46.381Z,4.50
2023-04-09T09:42:21.685Z,5.40
2023-04-09T09:45:00.822Z,5.47
2023-04-09T09:47:36.821Z,4.80
2023-04-09T09:50:11.367Z,4.67
2023-04-09T09:52:47.705Z,5.10
2023-04-09T09:55:24.655Z,5.07
2023-04-09T09:58:05.145Z,5.03
2023-04-09T10:00:42.468Z,4.77
2023-04-09T10:03:26.607Z,4.83
2023-04-09T10:06:04.750Z,4.87
2023-04-09T10:08:42.542Z,4.50
2023-04-09T10:11:16.482Z,4.53
2023-04-09T10:13:57.187Z,4.57
2023-04-09T10:16:35.719Z,4.07
2023-04-09T10:19:14.235Z,4.50
2023-04-09T10:22:00.912Z,4.37
2023-04-09T10:24:36.792Z,4.67
2023-04-09T10:27:16.255Z,3.97
2023-04-09T10:29:53.216Z,4.77
2023-04-09T10:32:28.711Z,4.43
2023-04-09T10:35:10.529Z,4.67
2023-04-09T10:37:50.796Z,3.90
2023-04-09T10:40:24.340Z,4.10
2023-04-09T10:42:59.954Z,4.77
2023-04-09T10:45:42.880Z,4.13
2023-04-09T10:48:22.814Z,4.37
2023-04-09T10:50:58.144Z,3.80
2023-04-09T10:53:33.979Z,4.30
2023-04-09T10:56:17.945Z,4.27
2023-04-09T10:58:51.967Z,4.47
2023-04-09T11:01:27.432Z,4.47
2023-04-09T11:04:26.720Z,3.93
2023-04-09T11:07:02.952Z,4.40
2023-04-09T11:09:36.914Z,4.23
2023-04-09T11:12:12.701Z,4.23
2023-04-09T11:14:46.241Z,4.10
2023-04-09T11:17:21.960Z,4.10
2023-04-09T11:19:57.693Z,3.40
2023-04-09T11:22:31.871Z,3.97
2023-04-09T11:25:06.022Z,4.40
2023-04-09T11:27:40.779Z,4.10
2023-04-09T11:30:14.890Z,4.33
2023-04-09T11:32:49.921Z,3.93
2023-04-09T11:35:25.785Z,4.30
2023-04-09T11:37:59.702Z,4.43
2023-04-09T11:40:33.645Z,4.60
2023-04-09T11:43:10.825Z,4.00
2023-04-09T11:45:47.112Z,4.23
2023-04-09T11:48:22.126Z,3.90
2023-04-09T11:50:57.922Z,4.37
2023-04-09T11:53:33.229Z,3.93
2023-04-09T11:56:07.607Z,4.43
2023-04-09T11:58:47.142Z,4.57
2023-04-09T12:01:23.783Z,4.73
2023-04-09T12:03:58.076Z,4.53
2023-04-09T12:06:33.353Z,4.67
2023-04-09T12:09:13.719Z,4.13
2023-04-09T12:11:47.603Z,4.40
2023-04-09T12:14:23.908Z,4.67
2023-04-09T12:16:57.416Z,4.97
2023-04-09T12:19:31.066Z,4.47
2023-04-09T12:22:06.355Z,4.23
2023-04-09T12:24:40.167Z,4.37
2023-04-09T12:27:14.772Z,4.67
2023-04-09T12:29:49.250Z,4.30
2023-04-09T12:32:23.067Z,4.17
2023-04-09T12:34:56.900Z,4.53
2023-04-09T12:37:32.138Z,4.53
2023-04-09T12:40:09.132Z,4.20
2023-04-09T12:42:42.706Z,4.40
2023-04-09T12:45:23.561Z,3.80
2023-04-09T12:47:57.304Z,3.70
2023-04-09T12:50:30.998Z,4.30
2023-04-09T12:53:05.930Z,4.40
2023-04-09T12:55:42.187Z,4.03
2023-04-09T12:58:18.179Z,4.00
2023-04-09T13:00:54.078Z,4.43
2023-04-09T13:03:28.005Z,4.13
2023-04-09T13:06:01.785Z,3.70
2023-04-09T13:08:37.323Z,3.70
2023-04-09T13:11:11.178Z,3.77
2023-04-09T13:13:44.897Z,4.67
2023-04-09T13:16:18.888Z,4.40
2023-04-09T13:18:53.254Z,4.30
2023-04-09T13:21:27.445Z,4.23
2023-04-09T13:24:02.902Z,3.73
2023-04-09T13:26:37.202Z,3.90
2023-04-09T13:29:11.181Z,3.40
2023-04-09T13:31:44.931Z,4.60
2023-04-09T13:34:18.586Z,4.20
2023-04-09T13:36:52.641Z,3.67
2023-04-09T13:39:27.665Z,4.27
2023-04-09T13:42:07.253Z,3.70
2023-04-09T13:44:42.712Z,4.47
2023-04-09T13:47:19.003Z,3.73
2023-04-09T13:49:53.330Z,4.37
2023-04-09T13:52:29.638Z,3.67
2023-04-09T13:55:05.376Z,4.13
2023-04-09T13:57:39.682Z,4.03
2023-04-09T14:00:14.844Z,4.00
2023-04-09T14:02:48.458Z,3.50
2023-04-09T14:05:22.002Z,3.73
2023-04-09T14:07:55.811Z,4.00
2023-04-09T14:10:31.730Z,4.00
2023-04-09T14:13:07.374Z,3.57
2023-04-09T14:15:42.103Z,3.87
2023-04-09T14:18:17.429Z,3.67
2023-04-09T14:20:51.296Z,3.93
2023-04-09T14:23:25.177Z,3.83
2023-04-09T14:26:00.607Z,3.43
2023-04-09T14:28:34.783Z,3.40
2023-04-09T14:31:08.898Z,3.90
2023-04-09T14:33:43.094Z,3.33
2023-04-09T14:36:16.844Z,3.50
2023-04-09T14:38:50.938Z,3.17
2023-04-09T14:41:27.085Z,3.50
2023-04-09T14:44:01.350Z,3.70
2023-04-09T14:46:35.117Z,4.10
2023-04-09T14:49:08.920Z,3.57
2023-04-09T14:51:43.202Z,3.23
2023-04-09T14:54:17.301Z,3.07
2023-04-09T14:56:52.553Z,3.27
2023-04-09T14:59:27.495Z,2.80
2023-04-09T15:02:01.698Z,3.50
2023-04-09T15:04:35.918Z,3.50
2023-04-09T15:07:09.996Z,3.30
2023-04-09T15:09:43.632Z,3.80
2023-04-09T15:12:19.044Z,3.30
2023-04-09T15:14:52.507Z,3.50
2023-04-09T15:17:28.983Z,2.93
2023-04-09T15:20:02.588Z,2.87
2023-04-09T15:22:36.144Z,3.27
2023-04-09T15:27:47.039Z,3.27
2023-04-09T15:30:21.935Z,2.97
2023-04-09T15:32:55.754Z,3.50
2023-04-09T15:35:30.271Z,3.50
2023-04-09T15:38:03.993Z,4.87
2023-04-09T15:40:37.767Z,4.40
2023-04-09T15:43:12.821Z,3.23
2023-04-09T15:45:48.977Z,2.87
2023-04-09T15:48:22.668Z,3.27
2023-04-09T15:50:56.479Z,3.30
2023-04-09T15:53:30.685Z,3.20
2023-04-09T15:56:05.432Z,3.20
2023-04-09T15:58:40.610Z,3.27
2023-04-09T16:01:14.342Z,3.63
2023-04-09T16:03:52.360Z,3.57
2023-04-09T16:06:26.871Z,3.13
2023-04-09T16:09:00.427Z,3.10
2023-04-09T16:11:36.302Z,3.00
2023-04-09T16:14:12.026Z,3.43
2023-04-09T16:16:52.390Z,2.80
2023-04-09T16:19:26.685Z,3.40
2023-04-09T16:22:00.644Z,3.10
2023-04-09T16:24:35.140Z,3.03
2023-04-09T16:27:08.868Z,2.70
2023-04-09T16:29:44.654Z,3.20
2023-04-09T16:32:18.522Z,3.10
2023-04-09T16:34:52.400Z,2.80
2023-04-09T16:37:26.670Z,2.77
2023-04-09T16:40:01.135Z,2.70
2023-04-09T16:42:34.707Z,3.03
2023-04-09T16:45:12.459Z,3.03
2023-04-09T16:47:49.657Z,3.03
2023-04-09T16:50:27.621Z,2.87
2023-04-09T16:53:04.485Z,3.10
2023-04-09T16:55:38.955Z,2.90
2023-04-09T16:58:12.299Z,2.90
2023-04-09T17:00:49.361Z,3.03
2023-04-09T17:03:25.562Z,3.67
2023-04-09T17:05:59.593Z,3.23
2023-04-09T17:08:33.331Z,3.50
2023-04-09T17:11:08.498Z,2.77
2023-04-09T17:13:42.926Z,3.07
2023-04-09T17:16:18.432Z,3.17
2023-04-09T17:18:53.422Z,3.13
2023-04-09T17:21:27.920Z,3.50
2023-04-09T17:24:02.791Z,3.27
2023-04-09T17:26:36.579Z,3.60
2023-04-09T17:29:10.572Z,3.53
2023-04-09T17:31:46.116Z,3.50
2023-04-09T17:34:20.262Z,3.40
2023-04-09T17:36:57.273Z,3.20
2023-04-09T17:39:32.201Z,3.50
2023-04-09T17:42:06.821Z,3.47
2023-04-09T17:44:41.435Z,3.53
2023-04-09T17:47:16.085Z,3.23
2023-04-09T17:49:49.734Z,3.20
2023-04-09T17:52:23.758Z,3.43
2023-04-09T17:54:58.399Z,3.47
2023-04-09T17:57:31.668Z,3.10
2023-04-09T18:00:06.688Z,2.60
2023-04-09T18:02:46.045Z,2.60
2023-04-09T18:05:19.872Z,3.00
2023-04-09T18:07:55.156Z,2.97
2023-04-09T18:10:28.580Z,3.20
2023-04-09T18:13:01.990Z,2.80
2023-04-09T18:15:39.787Z,3.37
2023-04-09T18:18:14.867Z,3.20
2023-04-09T18:20:49.965Z,3.20
2023-04-09T18:23:23.621Z,3.77
2023-04-09T18:25:56.981Z,3.30
2023-04-09T18:28:30.717Z,2.90
2023-04-09T18:31:04.581Z,3.57
2023-04-09T18:33:40.264Z,3.03
2023-04-09T18:36:14.219Z,2.70
2023-04-09T18:38:48.114Z,3.13
2023-04-09T18:41:25.157Z,2.80
2023-04-09T18:43:58.723Z,2.80
2023-04-09T18:46:33.278Z,3.50
2023-04-09T18:49:08.923Z,3.00
2023-04-09T18:51:42.910Z,3.07
2023-04-09T18:54:17.306Z,3.40
2023-04-09T18:56:51.328Z,3.10
2023-04-09T18:59:25.050Z,2.93
2023-04-09T19:01:59.441Z,2.97
2023-04-09T19:04:39.833Z,3.10
2023-04-09T19:07:14.374Z,2.90
2023-04-09T19:09:48.137Z,2.87
2023-04-09T19:12:22.159Z,3.00
2023-04-09T19:14:55.684Z,3.00
2023-04-09T19:17:29.972Z,3.13
2023-04-09T19:20:09.059Z,2.87
2023-04-09T19:22:47.998Z,3.60
2023-04-09T19:25:26.588Z,3.10
2023-04-09T19:27:59.945Z,2.97
2023-04-09T19:30:33.343Z,2.90
2023-04-09T19:33:08.461Z,3.07
2023-04-09T19:35:43.717Z,3.40
2023-04-09T19:38:18.883Z,3.43
2023-04-09T19:40:52.617Z,3.47
2023-04-09T19:43:27.062Z,3.67
2023-04-09T19:46:01.188Z,3.30
2023-04-09T19:48:35.139Z,3.87
2023-04-09T19:51:17.522Z,3.83
2023-04-09T19:53:51.565Z,3.50
2023-04-09T19:56:25.928Z,4.03
2023-04-09T19:58:59.801Z,4.07
2023-04-09T20:01:34.158Z,3.80
2023-04-09T20:04:09.289Z,4.00
2023-04-09T20:06:48.805Z,4.40
2023-04-09T20:09:25.934Z,4.40
2023-04-09T20:12:04.450Z,4.60
2023-04-09T20:14:41.110Z,4.57
2023-04-09T20:17:15.370Z,4.27
2023-04-09T20:19:49.965Z,4.50
2023-04-09T20:22:25.566Z,4.47
2023-04-09T20:25:00.289Z,4.10
2023-04-09T20:27:33.759Z,4.27
2023-04-09T20:30:09.961Z,5.17
2023-04-09T20:32:44.248Z,4.90
2023-04-09T20:35:18.616Z,5.00
2023-04-09T20:37:55.152Z,4.70
2023-04-09T20:40:32.220Z,6.07
2023-04-09T20:43:06.461Z,5.37
2023-04-09T20:45:40.420Z,5.50
2023-04-09T20:48:15.251Z,4.73
2023-04-09T20:50:49.030Z,5.40
2023-04-09T20:53:25.138Z,5.67
2023-04-09T20:55:59.030Z,5.40
2023-04-09T20:58:33.653Z,6.17
2023-04-09T21:01:10.204Z,5.80
2023-04-09T21:03:45.011Z,6.00
2023-04-09T21:06:19.107Z,5.60
2023-04-09T21:08:56.954Z,5.63
2023-04-09T21:11:32.198Z,5.97
2023-04-09T21:14:07.464Z,5.37
2023-04-09T21:16:41.276Z,5.50
2023-04-09T21:19:15.135Z,6.13
2023-04-09T21:21:49.037Z,5.53
2023-04-09T21:24:24.740Z,5.87
2023-04-09T21:26:59.669Z,6.67
2023-04-09T21:29:33.556Z,6.63
2023-04-09T21:32:08.281Z,6.67
2023-04-09T21:34:42.567Z,7.60
2023-04-09T21:37:16.616Z,7.50
2023-04-09T21:39:51.693Z,7.63
2023-04-09T21:42:25.478Z,7.50
2023-04-09T21:44:59.008Z,8.50
2023-04-09T21:47:33.283Z,7.93
2023-04-09T21:50:08.957Z,8.13
2023-04-09T21:52:43.338Z,7.47
2023-04-09T21:55:18.698Z,8.13
2023-04-09T21:58:18.810Z,8.33
2023-04-09T22:00:55.739Z,7.23
2023-04-09T22:03:29.712Z,7.43
2023-04-09T22:06:03.327Z,7.30
2023-04-09T22:08:40.512Z,7.83
2023-04-09T22:11:27.196Z,6.17
2023-04-09T22:14:01.331Z,7.03
2023-04-09T22:16:35.210Z,6.70
2023-04-09T22:19:09.621Z,6.37
2023-04-09T22:21:43.197Z,5.87
2023-04-09T22:24:18.264Z,5.43
2023-04-09T22:26:53.564Z,6.10
2023-04-09T22:29:28.008Z,6.03
2023-04-09T22:32:02.903Z,6.47
2023-04-09T22:34:36.957Z,5.60
2023-04-09T22:37:10.639Z,5.63
2023-04-09T22:39:44.257Z,6.20
2023-04-09T22:42:19.839Z,6.07
2023-04-09T22:44:54.174Z,5.90
2023-04-09T22:47:28.158Z,6.03
2023-04-09T22:50:02.178Z,5.63
2023-04-09T22:52:35.977Z,6.03
2023-04-09T22:55:11.428Z,6.43
2023-04-09T22:57:46.706Z,5.77
2023-04-09T23:00:20.982Z,5.63
2023-04-09T23:02:55.140Z,5.70
2023-04-09T23:05:30.125Z,6.23
2023-04-09T23:08:03.834Z,5.20
2023-04-09T23:10:38.390Z,6.00
2023-04-09T23:13:15.468Z,6.23
2023-04-09T23:15:49.531Z,5.67
2023-04-09T23:18:23.671Z,5.27
2023-04-09T23:20:57.353Z,6.57
2023-04-09T23:23:30.957Z,6.43
2023-04-09T23:26:05.724Z,6.60
2023-04-09T23:28:41.086Z,6.03
2023-04-09T23:31:15.235Z,5.90
2023-04-09T23:33:49.032Z,5.17
2023-04-09T23:36:24.442Z,6.07
2023-04-09T23:38:58.269Z,5.83
2023-04-09T23:41:31.762Z,5.63
2023-04-09T23:44:07.453Z,6.43
2023-04-09T23:46:41.714Z,5.83
2023-04-09T23:49:16.602Z,6.13
2023-04-09T23:51:52.509Z,5.83
2023-04-09T23:54:26.111Z,6.07
2023-04-09T23:56:59.994Z,6.90
2023-04-09T23:59:36.125Z,6.37
